ADDS METAR Data INFO
IDs: Format: Raw Decoded Include TAF

Data at: 0023 UTC 15 Dec 2017

KOLV 142350Z 35005KT 10SM SKC 02/M04 A3005
KOLV 142250Z COR 35010KT 10SM FEW200 04/M04 A3003
KOLV 142150Z 36010KT 10SM FEW200 07/M03 A3000
KOLV 142050Z 35008KT 10SM FEW250 08/M03 A3001
KOLV 141950Z 33008KT 10SM FEW250 09/M03 A3000
KOLV 141850Z 03007KT 10SM FEW250 08/M03 A3001
KOLV 141750Z 03007KT 10SM FEW250 08/M03 A3002
KOLV 141650Z 03007KT 10SM FEW250 07/M03 A3005
KOLV 141550Z 05009KT 10SM FEW250 06/M03 A3004
KOLV 141450Z 05012KT 10SM FEW250 04/M03 A3000
KOLV 141350Z 04005KT 10SM FEW250 03/M01 A2996
KOLV 141250Z 04005KT 10SM FEW250 02/M02 A2993
KOLV 140150Z 21005KT 10SM SKC 08/M03 A2981
KOLV 140050Z 23010KT 10SM SKC 09/M03 A2979
KOLV 132350Z 21007KT 10SM SCT230 09/M04 A2979
KOLV 132250Z 21006KT 10SM BKN240 11/M04 A2979
KOLV 132150Z 22013KT 10SM FEW150 SCT250 13/M05 A2979
KOLV 132050Z 23015G20KT 10SM FEW150 FEW250 13/M04 A2978
KOLV 131950Z 21016G22KT 10SM SKC 13/M04 A2981
KOLV 131850Z 20016G24KT 10SM SKC 12/M05 A2982
KOLV 131750Z 19016G21KT 10SM SKC 10/M06 A2986 RMK PRESFR
KOLV 131650Z 20018KT 10SM SKC 08/M06 A2992
KOLV 131550Z 21014G20KT 10SM SKC 05/M06 A2997
KOLV 131450Z 20011KT 10SM SKC 02/M04 A2999
KOLV 131350Z 18006KT 10SM SKC M02/M03 A3000
KOLV 131250Z 18008KT 10SM SKC M04/M05 A3001